PGH weather

Pantnagar Airport
Pantnagar, Uttar Pradesh, India

Public forecast

Using degrees Celsius for public forecast. Weather courtesy of forecast.io.

METAR (pilot weather report)

Report is more than 6 hours old.

Retrieved 2019/09/20 09:00 UTC (17 hours ago):

VIPT 200900Z 00000KT 6000 FEW030 SCT100 33/22 Q1009

TAF (pilot weather forecast)

Forecast is more than 12 hours old.

Retrieved 2016/07/10 06:00 UTC (3 years ago):

TAF VIPT 100500Z 1006/1015 24005KT 4000 HZ FEW040 SCT100 TEMPO 1010/1015 2000 -TSRA SCT030 FEW035CB BKN090